Worthville, Kentucky
Current Conditions -  °F | °C
As of 7:53 AM on Wednesday 26 Nov 2014 (Local Time) from KFFT Reporting Station
Haze Haze  
Wind Chill: 25°   Ceiling: Unl
Heat Index: 25°   Visibility: 4mi
Dew Point: 23°   Wind: 3mph
Humidity: 92%   Direction: 330°NNW
Pressure: 30.11"   Gusts: NA
Location:  38.61°N, 85.07°W
Report Text: KFFT 261253Z AUTO 33003KT 4SM BR CLR M04/M05 A3011 RMK AO2 SLP202 T10391050
Loading
Personal Weather Stations






























Interactive Weather Map New forecast layout! Learn more

10-Day Weather Forecast

Advertisements
Track Severe Weather on mobile